Time;durP1;ratioP1;P1;durP2;ratioP2;P2;SDS_P1;SDS_P2;PMS_P1;PMS_P2;Temp;Humidity;BMP_temperature;BMP_pressure;BME280_temperature;BME280_humidity;BME280_pressure;Samples;Min_cycle;Max_cycle;Signal;HPM_P1;HPM_P2
2022/07/16 01:17:22;;;;;;;4.17;2.10;;;27.20;49.80;;;;;;6172931;23;20531;-75
2022/07/16 01:19:47;;;;;;;5.05;2.30;;;27.20;49.70;;;;;;6186565;23;20004;-74
2022/07/16 01:22:26;;;;;;;5.55;2.13;;;27.10;49.70;;;;;;6186253;23;20005;-74
2022/07/16 01:24:53;;;;;;;5.57;2.17;;;27.10;49.80;;;;;;6187038;23;20398;-73
2022/07/16 01:27:19;;;;;;;4.60;2.30;;;27.00;49.90;;;;;;6187635;23;20024;-74
2022/07/16 01:29:46;;;;;;;5.57;2.38;;;27.00;49.90;;;;;;6186171;23;20001;-73
2022/07/16 01:32:11;;;;;;;6.07;2.42;;;27.00;50.00;;;;;;6186384;23;20156;-74
2022/07/16 01:34:38;;;;;;;9.15;2.50;;;27.00;50.00;;;;;;6186666;23;20028;-73
2022/07/16 01:37:07;;;;;;;8.32;2.40;;;27.00;49.90;;;;;;6186600;23;20443;-74
2022/07/16 01:39:37;;;;;;;6.22;2.38;;;27.00;49.90;;;;;;6187004;23;20012;-74
2022/07/16 01:42:05;;;;;;;5.97;2.20;;;26.90;49.80;;;;;;6186911;23;20043;-74
2022/07/16 01:44:34;;;;;;;4.35;2.20;;;26.90;49.70;;;;;;6186463;23;20001;-74
2022/07/16 01:47:01;;;;;;;5.28;2.10;;;26.90;49.70;;;;;;6186401;23;20024;-74
2022/07/16 01:49:32;;;;;;;8.88;2.25;;;26.90;49.80;;;;;;6186656;23;19997;-75
2022/07/16 01:51:57;;;;;;;6.35;2.25;;;26.90;49.80;;;;;;6186336;23;20009;-74
2022/07/16 01:54:23;;;;;;;5.30;2.17;;;26.80;49.80;;;;;;6186596;23;20068;-73
2022/07/16 01:56:49;;;;;;;4.25;2.20;;;26.80;49.70;;;;;;6186541;23;19997;-73
2022/07/16 01:59:14;;;;;;;8.15;2.40;;;26.70;49.70;;;;;;6186892;23;20013;-73
2022/07/16 02:01:40;;;;;;;5.13;2.30;;;26.70;49.80;;;;;;6186426;23;20428;-74
2022/07/16 02:04:06;;;;;;;5.05;1.92;;;26.70;50.00;;;;;;6186399;23;20029;-73
2022/07/16 02:06:31;;;;;;;6.68;2.33;;;26.60;50.00;;;;;;6186243;23;20008;-73
2022/07/16 02:08:57;;;;;;;5.25;2.20;;;26.60;50.00;;;;;;6186218;23;20016;-73
2022/07/16 02:11:23;;;;;;;9.52;2.58;;;26.60;50.10;;;;;;6186259;23;20064;-73
2022/07/16 02:13:48;;;;;;;3.83;2.22;;;26.50;50.20;;;;;;6185754;23;20047;-73
2022/07/16 02:16:14;;;;;;;7.70;2.42;;;26.50;50.20;;;;;;6185963;23;20431;-73
2022/07/16 02:18:40;;;;;;;9.13;2.10;;;26.50;50.40;;;;;;6186347;23;20075;-73
2022/07/16 02:21:06;;;;;;;3.58;1.88;;;26.50;50.60;;;;;;6186265;23;19997;-74
2022/07/16 02:23:31;;;;;;;3.05;2.10;;;26.50;50.60;;;;;;6186396;23;20005;-73
2022/07/16 02:25:57;;;;;;;5.82;2.58;;;26.50;50.50;;;;;;6186210;23;20001;-73
2022/07/16 02:28:23;;;;;;;6.18;2.33;;;26.50;50.50;;;;;;6186139;23;20013;-73
2022/07/16 02:30:49;;;;;;;5.85;2.40;;;26.50;50.50;;;;;;6186192;23;20479;-74
2022/07/16 02:33:17;;;;;;;3.92;2.00;;;26.50;50.40;;;;;;6186531;23;20035;-73
2022/07/16 02:35:44;;;;;;;7.68;2.00;;;26.50;50.50;;;;;;6186170;23;20060;-74
2022/07/16 02:38:10;;;;;;;4.65;2.05;;;26.50;50.50;;;;;;6185880;23;20499;-76
2022/07/16 02:40:37;;;;;;;4.75;2.03;;;26.40;50.60;;;;;;6186195;23;20001;-74
2022/07/16 02:43:05;;;;;;;2.53;2.05;;;26.40;50.70;;;;;;6186011;23;20005;-74
2022/07/16 02:45:32;;;;;;;6.15;2.03;;;26.40;50.60;;;;;;6186137;23;20499;-74
2022/07/16 02:47:58;;;;;;;4.63;2.15;;;26.40;50.70;;;;;;6186066;23;20337;-74
2022/07/16 02:50:24;;;;;;;3.70;2.17;;;26.40;50.70;;;;;;6186500;23;20036;-74
2022/07/16 02:52:50;;;;;;;6.78;2.00;;;26.40;51.20;;;;;;6185719;23;20017;-74
2022/07/16 02:55:16;;;;;;;5.15;2.28;;;26.40;50.60;;;;;;6185844;23;20001;-75
2022/07/16 02:57:42;;;;;;;7.63;2.33;;;26.30;50.50;;;;;;6185962;23;20047;-73
2022/07/16 03:00:11;;;;;;;7.65;2.42;;;26.30;50.50;;;;;;6185829;23;20450;-74
2022/07/16 03:02:37;;;;;;;4.30;2.25;;;26.30;50.40;;;;;;6185613;23;20029;-74
2022/07/16 03:05:03;;;;;;;7.93;2.38;;;26.30;50.40;;;;;;6186146;23;20305;-73
2022/07/16 03:07:29;;;;;;;3.50;2.15;;;26.30;50.40;;;;;;6186194;23;20051;-74
2022/07/16 03:09:55;;;;;;;6.00;2.13;;;26.20;50.30;;;;;;6186088;23;19997;-74
2022/07/16 03:12:21;;;;;;;6.47;2.20;;;26.20;50.30;;;;;;6185768;23;20440;-75
2022/07/16 03:14:46;;;;;;;5.13;2.15;;;26.20;50.40;;;;;;6185870;23;20008;-74
2022/07/16 03:17:13;;;;;;;5.07;2.08;;;26.20;50.40;;;;;;6185328;23;20087;-73
2022/07/16 03:19:39;;;;;;;3.53;2.00;;;26.20;50.50;;;;;;6185809;23;20001;-74
2022/07/16 03:22:05;;;;;;;5.05;2.20;;;26.20;50.50;;;;;;6185531;23;20454;-74
2022/07/16 03:24:31;;;;;;;4.40;2.30;;;26.10;50.50;;;;;;6185699;23;20020;-74
2022/07/16 03:26:57;;;;;;;4.13;2.20;;;26.10;50.50;;;;;;6185542;23;20048;-74
2022/07/16 03:29:23;;;;;;;6.28;2.90;;;26.10;50.50;;;;;;6185643;23;20000;-73
2022/07/16 03:31:49;;;;;;;3.08;2.10;;;26.10;50.60;;;;;;6185213;23;20013;-74
2022/07/16 03:34:15;;;;;;;3.55;2.08;;;26.10;50.50;;;;;;6185461;23;19997;-74
2022/07/16 03:36:41;;;;;;;8.27;2.38;;;26.10;50.20;;;;;;6185924;23;20016;-74
2022/07/16 03:39:06;;;;;;;7.57;2.50;;;26.10;50.20;;;;;;6185620;23;19997;-74
2022/07/16 03:41:37;;;;;;;5.28;2.38;;;26.10;50.20;;;;;;6185681;23;20067;-74
2022/07/16 03:44:04;;;;;;;8.75;2.53;;;26.10;49.90;;;;;;6185619;23;20020;-73
2022/07/16 03:46:31;;;;;;;5.75;2.03;;;26.10;49.70;;;;;;6185315;23;20036;-74
2022/07/16 03:48:57;;;;;;;4.47;1.88;;;26.10;49.60;;;;;;6185640;23;20005;-73
2022/07/16 03:51:23;;;;;;;4.50;2.05;;;26.00;49.50;;;;;;6185199;23;20004;-74
2022/07/16 03:53:49;;;;;;;4.07;2.00;;;26.00;49.60;;;;;;6185924;23;20009;-74
2022/07/16 03:56:15;;;;;;;3.75;1.95;;;26.00;49.70;;;;;;6185299;23;20052;-74
2022/07/16 03:58:41;;;;;;;7.65;2.22;;;26.00;49.60;;;;;;6185452;23;20149;-73
2022/07/16 04:01:07;;;;;;;5.50;2.13;;;26.00;49.60;;;;;;6185459;23;20007;-74
2022/07/16 04:03:35;;;;;;;5.63;2.10;;;26.00;49.70;;;;;;6185244;23;20008;-73
2022/07/16 04:06:00;;;;;;;9.02;2.20;;;25.90;49.50;;;;;;6185507;23;20483;-73
2022/07/16 04:08:26;;;;;;;4.35;2.38;;;26.00;49.40;;;;;;6185458;23;20013;-74
2022/07/16 04:10:52;;;;;;;3.20;1.80;;;25.90;49.30;;;;;;6185156;23;19997;-74
2022/07/16 04:13:18;;;;;;;5.70;2.00;;;25.90;49.30;;;;;;6185350;23;20008;-73
2022/07/16 04:15:44;;;;;;;4.47;2.20;;;25.90;49.40;;;;;;6185249;23;20397;-74
2022/07/16 04:18:10;;;;;;;4.65;1.83;;;25.90;49.40;;;;;;6185114;23;20028;-74
2022/07/16 04:20:36;;;;;;;6.63;2.28;;;25.90;49.40;;;;;;6185608;23;20005;-74
2022/07/16 04:23:02;;;;;;;7.43;2.22;;;25.90;49.50;;;;;;6185315;23;20063;-74
2022/07/16 04:25:28;;;;;;;9.80;2.08;;;25.90;49.60;;;;;;6185433;23;20001;-73
2022/07/16 04:27:54;;;;;;;7.22;1.83;;;25.90;49.80;;;;;;6185419;23;20020;-73
2022/07/16 04:30:20;;;;;;;5.18;2.05;;;25.90;49.90;;;;;;6185076;23;20020;-74
2022/07/16 04:32:45;;;;;;;4.53;1.90;;;25.90;49.80;;;;;;6185174;23;20472;-74
2022/07/16 04:35:13;;;;;;;5.60;1.73;;;25.90;49.80;;;;;;6185500;23;20424;-74
2022/07/16 04:37:39;;;;;;;7.38;2.33;;;25.90;49.80;;;;;;6185829;23;20448;-73
2022/07/16 04:40:06;;;;;;;4.85;1.90;;;25.90;49.70;;;;;;6187332;23;20428;-72
2022/07/16 04:42:32;;;;;;;4.40;2.00;;;25.90;49.60;;;;;;6187365;23;20013;-73
2022/07/16 04:44:57;;;;;;;6.63;2.17;;;26.00;49.70;;;;;;6187207;23;20344;-74
2022/07/16 04:47:23;;;;;;;6.82;2.10;;;26.00;49.80;;;;;;6187016;23;20013;-74
2022/07/16 04:49:49;;;;;;;6.45;2.10;;;26.00;49.60;;;;;;6187462;23;20439;-73
2022/07/16 04:52:15;;;;;;;5.15;2.00;;;26.00;49.60;;;;;;6187563;23;20070;-73
2022/07/16 04:54:40;;;;;;;6.53;2.60;;;26.00;49.60;;;;;;6187196;23;20008;-75
2022/07/16 04:57:06;;;;;;;5.50;1.95;;;26.00;49.60;;;;;;6187146;23;20001;-74
2022/07/16 04:59:31;;;;;;;3.08;2.05;;;26.00;49.60;;;;;;6187027;23;20328;-74
2022/07/16 05:04:41;;;;;;;6.07;2.13;;;26.00;49.50;;;;;;6187002;23;20502;-74
2022/07/16 05:07:07;;;;;;;2.83;2.13;;;26.00;49.50;;;;;;6187160;23;20017;-76
2022/07/16 05:09:32;;;;;;;3.58;1.60;;;26.10;49.60;;;;;;6187179;23;20327;-76
2022/07/16 05:11:58;;;;;;;4.20;1.90;;;26.10;49.60;;;;;;6187008;23;20009;-74
2022/07/16 05:14:24;;;;;;;4.90;1.67;;;26.10;49.70;;;;;;6186989;23;20004;-74
2022/07/16 05:16:49;;;;;;;3.90;1.90;;;26.10;49.70;;;;;;6186984;23;20325;-74
2022/07/16 05:19:15;;;;;;;4.10;1.85;;;26.10;49.60;;;;;;6186794;23;20419;-74
2022/07/16 05:21:41;;;;;;;4.13;1.80;;;26.20;49.60;;;;;;6187072;23;20009;-74
2022/07/16 05:24:06;;;;;;;6.80;1.85;;;26.20;49.60;;;;;;6185626;23;20005;-75
2022/07/16 05:26:32;;;;;;;3.45;1.70;;;26.30;49.60;;;;;;6183430;23;20004;-74
2022/07/16 05:28:58;;;;;;;3.88;2.00;;;26.30;49.60;;;;;;6182898;23;20036;-75
2022/07/16 05:31:23;;;;;;;4.63;1.90;;;26.30;49.60;;;;;;6183462;23;20008;-74
2022/07/16 05:33:49;;;;;;;6.10;1.90;;;26.30;49.60;;;;;;6185238;23;20119;-75
2022/07/16 05:36:15;;;;;;;6.45;2.03;;;26.30;49.60;;;;;;6187022;23;20008;-75
2022/07/16 05:38:40;;;;;;;4.30;2.15;;;26.40;49.60;;;;;;6186937;23;20064;-75
2022/07/16 05:41:06;;;;;;;7.78;1.80;;;26.40;49.60;;;;;;6186694;23;20005;-75
2022/07/16 05:43:32;;;;;;;6.72;1.90;;;26.50;49.60;;;;;;6186619;23;20389;-74
2022/07/16 05:45:57;;;;;;;4.22;1.88;;;26.50;49.50;;;;;;6186989;23;20429;-74
2022/07/16 05:48:23;;;;;;;9.85;3.08;;;26.60;49.60;;;;;;6186374;23;20009;-74
2022/07/16 05:50:49;;;;;;;11.75;3.08;;;26.60;50.00;;;;;;6186556;23;20001;-74
2022/07/16 05:53:14;;;;;;;7.65;2.60;;;26.60;50.20;;;;;;6186776;23;20068;-75
2022/07/16 05:55:40;;;;;;;4.32;1.73;;;26.60;50.20;;;;;;6186398;23;20451;-75
2022/07/16 05:58:05;;;;;;;3.38;1.92;;;26.60;50.20;;;;;;6186369;23;20298;-74
2022/07/16 06:00:31;;;;;;;4.15;1.92;;;26.70;49.90;;;;;;6186392;23;20055;-74
2022/07/16 06:02:57;;;;;;;6.50;1.75;;;26.60;49.70;;;;;;6186535;23;20068;-79
2022/07/16 06:05:23;;;;;;;5.85;2.13;;;26.70;49.90;;;;;;6186905;23;20008;-77
2022/07/16 06:07:49;;;;;;;5.63;1.90;;;26.70;49.70;;;;;;6186570;23;20088;-73
2022/07/16 06:10:15;;;;;;;3.08;1.65;;;26.80;49.40;;;;;;6186208;23;20035;-73
2022/07/16 06:12:41;;;;;;;4.90;2.03;;;26.70;49.20;;;;;;6186374;23;20424;-74
2022/07/16 06:15:10;;;;;;;5.30;1.77;;;26.80;49.10;;;;;;6186361;23;20072;-74
2022/07/16 06:17:36;;;;;;;6.90;1.98;;;26.80;49.00;;;;;;6186197;23;20384;-74
2022/07/16 06:20:02;;;;;;;3.83;1.90;;;26.90;49.00;;;;;;6185918;23;19997;-73
2022/07/16 06:22:27;;;;;;;3.58;1.60;;;26.90;48.80;;;;;;6185788;23;20005;-74
2022/07/16 06:24:53;;;;;;;5.55;1.77;;;26.90;48.40;;;;;;6185798;23;20008;-74
2022/07/16 06:27:19;;;;;;;5.05;2.05;;;27.00;48.30;;;;;;6186238;23;20013;-73
2022/07/16 06:29:44;;;;;;;4.00;1.70;;;27.00;48.20;;;;;;6186225;23;19997;-73
2022/07/16 06:32:10;;;;;;;4.03;1.83;;;27.00;48.20;;;;;;6186362;23;20372;-74
2022/07/16 06:34:36;;;;;;;2.65;1.75;;;27.00;48.10;;;;;;6185992;23;20052;-74
2022/07/16 06:37:01;;;;;;;11.93;2.60;;;27.00;47.90;;;;;;6185545;23;20004;-74
2022/07/16 06:39:27;;;;;;;4.05;2.00;;;27.20;47.80;;;;;;6185690;23;20474;-73
2022/07/16 06:41:53;;;;;;;7.82;1.92;;;27.20;48.00;;;;;;6185674;23;20032;-73
2022/07/16 06:44:19;;;;;;;5.70;1.80;;;27.20;47.80;;;;;;6185983;23;20035;-74
2022/07/16 06:46:44;;;;;;;6.75;2.00;;;27.20;47.60;;;;;;6185892;23;20005;-73
2022/07/16 06:49:10;;;;;;;4.22;1.80;;;27.30;47.60;;;;;;6185886;23;20009;-74
2022/07/16 06:51:36;;;;;;;4.22;1.80;;;27.30;47.50;;;;;;6185970;23;20458;-74
2022/07/16 06:54:02;;;;;;;4.85;1.90;;;27.40;47.50;;;;;;6186048;23;20001;-73
2022/07/16 06:56:27;;;;;;;13.98;2.33;;;27.40;47.30;;;;;;6186105;23;20001;-73
2022/07/16 06:58:53;;;;;;;5.18;1.75;;;27.50;48.10;;;;;;6186010;23;20001;-73
2022/07/16 07:01:19;;;;;;;3.17;1.80;;;27.50;47.60;;;;;;6186226;23;20001;-73
2022/07/16 07:03:44;;;;;;;11.27;2.40;;;27.60;47.40;;;;;;6185998;23;20029;-73
2022/07/16 07:06:10;;;;;;;8.48;1.92;;;27.60;47.10;;;;;;6185735;23;20079;-73
2022/07/16 07:08:36;;;;;;;8.20;2.33;;;27.60;46.90;;;;;;6185598;23;20009;-73
2022/07/16 07:11:02;;;;;;;4.70;2.00;;;27.60;46.80;;;;;;6185984;23;20069;-72
2022/07/16 07:13:30;;;;;;;4.90;2.05;;;27.70;46.90;;;;;;6186364;23;20427;-73
2022/07/16 07:15:56;;;;;;;6.68;2.20;;;27.70;46.90;;;;;;6185764;23;20033;-74
2022/07/16 07:18:23;;;;;;;9.85;1.85;;;27.80;47.10;;;;;;6185447;23;20020;-73
2022/07/16 07:20:48;;;;;;;6.15;2.20;;;27.80;47.00;;;;;;6185823;23;20319;-73
2022/07/16 07:23:14;;;;;;;7.57;2.10;;;27.90;46.90;;;;;;6185698;23;20001;-74
2022/07/16 07:25:40;;;;;;;3.55;1.60;;;27.90;46.90;;;;;;6185827;23;20426;-74
2022/07/16 07:28:05;;;;;;;7.18;1.88;;;27.90;46.80;;;;;;6186097;23;20079;-74
2022/07/16 07:30:31;;;;;;;7.18;2.15;;;28.00;46.80;;;;;;6185765;23;19997;-74
2022/07/16 07:33:00;;;;;;;6.57;2.10;;;28.00;46.70;;;;;;6185837;23;20001;-74
2022/07/16 07:35:26;;;;;;;9.75;2.00;;;28.10;46.80;;;;;;6185769;23;19997;-74
2022/07/16 07:37:52;;;;;;;3.72;2.08;;;28.10;46.80;;;;;;6185573;23;20005;-74
2022/07/16 07:40:18;;;;;;;5.45;2.08;;;28.20;46.80;;;;;;6185793;23;19996;-73
2022/07/16 07:42:44;;;;;;;6.00;2.00;;;28.20;46.70;;;;;;6185674;23;20436;-73
2022/07/16 07:45:10;;;;;;;7.63;2.45;;;28.30;46.70;;;;;;6185641;23;20001;-74
2022/07/16 07:47:37;;;;;;;6.15;2.08;;;28.30;46.50;;;;;;6185411;23;20080;-73
2022/07/16 07:50:05;;;;;;;7.20;2.22;;;28.30;46.60;;;;;;6185708;23;20471;-73
2022/07/16 07:52:30;;;;;;;7.93;2.10;;;28.40;46.80;;;;;;6185384;23;20009;-73
2022/07/16 07:54:56;;;;;;;7.90;2.67;;;28.40;46.70;;;;;;6185552;23;20001;-74
2022/07/16 07:57:22;;;;;;;6.55;2.20;;;28.50;46.90;;;;;;6185588;23;20301;-74
2022/07/16 07:59:47;;;;;;;9.88;2.20;;;28.50;47.00;;;;;;6185935;23;20322;-74
2022/07/16 08:02:13;;;;;;;3.30;2.05;;;28.50;46.90;;;;;;6185543;23;20005;-74
2022/07/16 08:04:38;;;;;;;11.55;2.13;;;28.60;47.00;;;;;;6185467;23;20023;-74
2022/07/16 08:07:05;;;;;;;4.57;2.38;;;28.60;46.90;;;;;;6185732;23;20029;-74
2022/07/16 08:09:31;;;;;;;8.18;1.90;;;28.60;46.80;;;;;;6185827;23;20016;-74
2022/07/16 08:11:57;;;;;;;6.05;2.25;;;28.70;46.90;;;;;;6185407;23;20392;-74
2022/07/16 08:14:23;;;;;;;4.47;2.10;;;28.70;47.00;;;;;;6185371;23;20024;-73
2022/07/16 08:16:48;;;;;;;6.45;1.90;;;28.70;46.80;;;;;;6185122;23;20020;-73
2022/07/16 08:19:14;;;;;;;6.72;1.70;;;28.80;46.80;;;;;;6185581;23;20102;-74
2022/07/16 08:21:40;;;;;;;10.20;2.30;;;28.80;46.80;;;;;;6185538;23;20369;-74
2022/07/16 08:26:51;;;;;;;6.13;2.33;;;28.90;46.50;;;;;;6185336;23;20023;-74
2022/07/16 08:29:16;;;;;;;4.72;2.08;;;29.00;46.50;;;;;;6185386;23;20001;-74
2022/07/16 08:31:42;;;;;;;3.05;2.20;;;29.00;46.40;;;;;;6185447;23;20011;-74
2022/07/16 08:34:08;;;;;;;4.03;2.10;;;29.10;46.30;;;;;;6185312;23;20048;-74
2022/07/16 08:36:33;;;;;;;8.32;2.45;;;29.20;46.40;;;;;;6185478;23;20336;-74
2022/07/16 08:38:59;;;;;;;5.68;2.67;;;29.20;46.20;;;;;;6185085;23;20028;-74
2022/07/16 08:41:25;;;;;;;2.65;2.03;;;29.30;46.20;;;;;;6185111;23;20081;-74
2022/07/16 08:43:52;;;;;;;6.00;2.20;;;29.40;46.20;;;;;;6185267;23;20425;-74
2022/07/16 08:46:21;;;;;;;3.33;1.98;;;29.40;46.20;;;;;;6185548;23;20495;-73
2022/07/16 08:48:51;;;;;;;11.73;2.38;;;29.40;46.00;;;;;;6185098;23;20452;-73
2022/07/16 08:51:22;;;;;;;9.48;1.70;;;29.50;45.90;;;;;;6185427;23;20004;-73
2022/07/16 08:53:50;;;;;;;7.75;2.33;;;29.60;45.60;;;;;;6185477;23;20005;-73
2022/07/16 08:56:17;;;;;;;5.60;1.90;;;29.60;45.50;;;;;;6184982;23;20005;-73
2022/07/16 08:58:43;;;;;;;3.58;2.05;;;29.70;45.40;;;;;;6185346;23;20297;-74
2022/07/16 09:01:10;;;;;;;8.10;2.65;;;29.70;45.30;;;;;;6185253;23;20008;-74
2022/07/16 09:03:36;;;;;;;7.55;2.10;;;29.80;45.00;;;;;;6185498;23;20080;-73
2022/07/16 09:06:02;;;;;;;7.53;2.03;;;29.90;44.90;;;;;;6185605;23;20389;-74
2022/07/16 09:08:28;;;;;;;6.15;2.25;;;29.90;44.70;;;;;;6184936;23;20013;-73
2022/07/16 09:10:54;;;;;;;3.85;1.73;;;29.90;44.60;;;;;;6185344;23;20040;-74
2022/07/16 09:13:20;;;;;;;6.53;2.38;;;30.00;44.70;;;;;;6185288;23;20005;-73
2022/07/16 09:15:46;;;;;;;4.38;2.10;;;30.00;44.90;;;;;;6185035;23;20008;-74
2022/07/16 09:18:21;;;;;;;5.38;2.50;;;30.10;44.70;;;;;;6185004;23;20020;-74
2022/07/16 09:20:47;;;;;;;7.53;2.30;;;30.10;44.80;;;;;;6185265;23;20009;-74
2022/07/16 09:23:35;;;;;;;7.43;2.20;;;30.20;44.50;;;;;;6185646;23;20071;-74
2022/07/16 09:26:05;;;;;;;6.03;2.00;;;30.20;44.20;;;;;;6186792;23;20001;-74
2022/07/16 09:28:48;;;;;;;4.07;2.00;;;30.20;44.10;;;;;;6186872;23;20467;-73
2022/07/16 09:31:34;;;;;;;9.70;2.13;;;30.20;44.10;;;;;;6187036;23;20417;-73
2022/07/16 09:34:03;;;;;;;5.10;2.00;;;30.30;44.30;;;;;;6187106;23;20217;-74
2022/07/16 09:36:29;;;;;;;8.88;2.40;;;30.30;44.20;;;;;;6186677;23;20359;-74
2022/07/16 09:38:55;;;;;;;5.63;2.53;;;30.30;44.10;;;;;;6186718;23;20009;-73
2022/07/16 09:41:22;;;;;;;8.43;2.55;;;30.40;44.00;;;;;;6186679;23;20009;-75
2022/07/16 09:43:49;;;;;;;3.75;2.10;;;30.50;44.00;;;;;;6186688;23;20005;-74
2022/07/16 09:46:20;;;;;;;5.82;2.38;;;30.50;43.80;;;;;;6186672;23;20008;-74
2022/07/16 09:48:46;;;;;;;10.48;2.40;;;30.50;43.80;;;;;;6186725;23;20017;-74
2022/07/16 09:51:37;;;;;;;5.10;2.35;;;30.60;43.90;;;;;;6186684;23;20005;-74
2022/07/16 09:54:03;;;;;;;4.18;2.20;;;30.60;43.80;;;;;;6186689;23;20001;-74
2022/07/16 09:56:29;;;;;;;6.78;2.22;;;30.70;43.80;;;;;;6186761;23;20008;-74
2022/07/16 09:58:57;;;;;;;6.85;2.38;;;30.70;43.70;;;;;;6186422;23;20420;-74
2022/07/16 10:01:24;;;;;;;7.63;2.38;;;30.80;43.60;;;;;;6186189;23;20001;-74
2022/07/16 10:03:50;;;;;;;8.23;2.13;;;30.80;43.50;;;;;;6186534;23;20060;-74
2022/07/16 10:06:18;;;;;;;8.63;2.20;;;30.80;43.50;;;;;;6186883;23;20371;-74
2022/07/16 10:08:44;;;;;;;5.47;2.20;;;30.80;43.30;;;;;;6186561;23;20043;-74
2022/07/16 10:11:11;;;;;;;9.95;2.30;;;31.00;43.40;;;;;;6186611;23;19997;-74
2022/07/16 10:13:42;;;;;;;8.18;2.50;;;31.00;43.40;;;;;;6186477;23;20353;-74
2022/07/16 10:16:08;;;;;;;8.60;2.28;;;31.00;43.40;;;;;;6186223;23;20004;-74
2022/07/16 10:18:43;;;;;;;3.95;2.40;;;31.00;43.30;;;;;;6186652;23;20009;-74
2022/07/16 10:21:14;;;;;;;3.85;2.05;;;31.10;43.20;;;;;;6186881;23;20001;-73
2022/07/16 10:23:43;;;;;;;3.78;2.20;;;31.10;43.20;;;;;;6184757;23;20345;-74
2022/07/16 10:26:16;;;;;;;10.35;3.17;;;31.10;43.10;;;;;;6186420;23;20001;-73
2022/07/16 10:28:46;;;;;;;5.20;2.50;;;31.20;43.00;;;;;;6186292;23;20009;-73
2022/07/16 10:31:34;;;;;;;6.35;2.35;;;31.20;43.00;;;;;;6187209;23;20075;-73
2022/07/16 10:34:14;;;;;;;5.90;2.75;;;31.20;42.90;;;;;;6186471;23;20005;-74
2022/07/16 10:36:48;;;;;;;7.55;2.08;;;31.20;43.00;;;;;;6186103;23;20001;-74
2022/07/16 10:39:15;;;;;;;8.15;2.50;;;31.30;43.10;;;;;;6186136;23;20486;-74
2022/07/16 10:41:58;;;;;;;6.57;2.47;;;31.30;43.00;;;;;;6186295;23;20013;-74
2022/07/16 10:44:26;;;;;;;11.38;2.75;;;31.40;42.80;;;;;;6186158;23;20023;-75
2022/07/16 10:47:00;;;;;;;7.32;2.38;;;31.40;43.00;;;;;;6186494;23;20340;-74
2022/07/16 10:49:28;;;;;;;3.67;2.22;;;31.50;42.90;;;;;;6186158;23;20076;-75
2022/07/16 10:52:05;;;;;;;8.48;3.40;;;31.50;43.00;;;;;;6186060;23;20005;-75
2022/07/16 10:54:36;;;;;;;5.30;2.60;;;31.60;42.90;;;;;;6186172;23;20005;-75
2022/07/16 10:57:07;;;;;;;3.65;2.28;;;31.70;42.80;;;;;;6185930;23;20092;-75
2022/07/16 10:59:36;;;;;;;6.83;2.47;;;31.60;42.50;;;;;;6186218;23;19997;-75
2022/07/16 11:02:11;;;;;;;7.13;2.55;;;31.70;42.50;;;;;;6185687;23;20001;-75
2022/07/16 11:04:37;;;;;;;4.32;2.50;;;31.70;42.50;;;;;;6185655;23;20001;-74
2022/07/16 11:07:09;;;;;;;7.05;2.10;;;31.70;42.50;;;;;;6185674;23;20148;-74
2022/07/16 11:09:43;;;;;;;5.97;2.50;;;31.80;42.50;;;;;;6185814;23;20031;-74
2022/07/16 11:12:12;;;;;;;5.68;2.38;;;31.80;42.10;;;;;;6185747;23;20435;-74
2022/07/16 11:14:40;;;;;;;12.95;2.88;;;31.90;42.00;;;;;;6186011;23;20432;-75
2022/07/16 11:17:06;;;;;;;5.55;2.88;;;31.90;42.10;;;;;;6185830;23;20088;-75
2022/07/16 11:19:52;;;;;;;2.75;2.20;;;31.90;42.00;;;;;;6185743;23;20031;-74
2022/07/16 11:22:21;;;;;;;6.80;2.15;;;31.90;41.90;;;;;;6186276;23;20096;-74
2022/07/16 11:24:55;;;;;;;6.25;2.35;;;31.90;41.90;;;;;;6185796;23;20497;-75
2022/07/16 11:27:31;;;;;;;5.75;2.28;;;32.00;41.90;;;;;;6186124;23;20049;-75
2022/07/16 11:30:02;;;;;;;5.47;2.38;;;31.90;42.00;;;;;;6185822;23;20009;-74
2022/07/16 11:32:29;;;;;;;6.30;2.85;;;32.00;42.10;;;;;;6185753;23;20119;-75
2022/07/16 11:34:54;;;;;;;5.75;2.67;;;32.00;42.00;;;;;;6185818;23;20009;-75
2022/07/16 11:37:21;;;;;;;5.07;2.45;;;32.00;42.10;;;;;;6185816;23;20012;-75
2022/07/16 11:39:48;;;;;;;2.42;2.10;;;32.00;42.10;;;;;;6185551;23;20035;-74
2022/07/16 11:42:18;;;;;;;6.35;2.35;;;32.20;42.00;;;;;;6185573;23;20005;-74
2022/07/16 11:44:45;;;;;;;2.45;1.85;;;32.20;41.90;;;;;;6185580;23;20025;-75
2022/07/16 11:47:11;;;;;;;5.43;2.25;;;32.20;42.00;;;;;;6185351;23;20017;-75
2022/07/16 11:49:44;;;;;;;5.43;2.40;;;32.20;41.90;;;;;;6185944;23;20009;-74
2022/07/16 11:52:16;;;;;;;5.32;2.28;;;32.30;41.90;;;;;;6185573;23;20127;-74
2022/07/16 11:54:42;;;;;;;;;;;32.30;41.80;;;;;;6186271;23;20491;-75
2022/07/16 11:57:10;;;;;;;6.22;2.58;;;32.30;41.70;;;;;;6185673;23;19901;-74
2022/07/16 11:59:51;;;;;;;6.03;2.20;;;32.30;41.60;;;;;;6185476;23;20001;-74
2022/07/16 12:02:18;;;;;;;3.72;2.42;;;32.40;41.80;;;;;;6185713;23;20332;-75
2022/07/16 12:04:58;;;;;;;6.10;2.30;;;32.40;41.80;;;;;;6185381;23;20064;-75
2022/07/16 12:07:28;;;;;;;2.75;2.35;;;32.40;41.60;;;;;;6185353;23;20016;-75
2022/07/16 12:09:58;;;;;;;2.95;2.05;;;32.50;41.50;;;;;;6185844;23;20005;-74
2022/07/16 12:12:26;;;;;;;7.68;2.08;;;32.60;41.30;;;;;;6185791;23;20005;-74
2022/07/16 12:14:54;;;;;;;6.25;2.10;;;32.60;41.10;;;;;;6185299;23;19997;-74
2022/07/16 12:17:34;;;;;;;4.53;2.20;;;32.70;41.30;;;;;;6185010;23;20024;-74
2022/07/16 12:20:08;;;;;;;8.77;3.13;;;32.70;41.20;;;;;;6185669;23;20028;-75
2022/07/16 12:22:48;;;;;;;5.07;2.30;;;32.80;41.20;;;;;;6185689;23;19997;-74
2022/07/16 12:25:29;;;;;;;9.35;2.70;;;32.80;41.20;;;;;;6185322;23;19997;-75
2022/07/16 12:27:56;;;;;;;3.00;2.28;;;32.90;40.90;;;;;;6185207;23;20019;-75
2022/07/16 12:30:49;;;;;;;3.58;2.20;;;32.90;41.00;;;;;;6185413;23;20005;-75
2022/07/16 12:33:15;;;;;;;3.67;2.20;;;33.00;40.80;;;;;;6185447;23;20005;-74
2022/07/16 12:35:47;;;;;;;10.85;2.28;;;33.00;40.80;;;;;;6183563;23;20009;-74
2022/07/16 12:38:40;;;;;;;4.00;2.90;;;33.10;40.70;;;;;;6183721;23;20376;-75
2022/07/16 12:41:12;;;;;;;4.40;2.53;;;33.00;40.70;;;;;;6185476;23;20332;-74
2022/07/16 12:43:39;;;;;;;5.70;2.63;;;33.10;40.60;;;;;;6185248;23;20372;-75
2022/07/16 12:46:06;;;;;;;5.25;2.20;;;33.10;40.70;;;;;;6185128;23;20056;-75
2022/07/16 12:48:42;;;;;;;5.55;2.30;;;33.20;40.70;;;;;;6185198;23;20383;-74
2022/07/16 12:51:08;;;;;;;4.00;2.25;;;33.20;40.50;;;;;;6185191;23;20025;-73
2022/07/16 12:53:34;;;;;;;7.22;2.47;;;33.20;40.50;;;;;;6185755;23;20008;-75
2022/07/16 12:58:47;;;;;;;7.25;2.38;;;33.20;40.50;;;;;;6183209;23;20024;-74
2022/07/16 13:01:13;;;;;;;3.65;2.40;;;33.20;40.70;;;;;;6184137;23;20035;-75
2022/07/16 13:03:40;;;;;;;4.78;2.38;;;33.30;40.80;;;;;;6185547;23;20415;-74
2022/07/16 13:06:06;;;;;;;4.80;2.80;;;33.20;40.40;;;;;;6186984;23;20001;-74
2022/07/16 13:08:31;;;;;;;4.72;2.33;;;33.30;40.50;;;;;;6186885;23;20458;-74
2022/07/16 13:10:57;;;;;;;4.40;2.17;;;33.30;40.50;;;;;;6186790;23;20001;-75
2022/07/16 13:13:23;;;;;;;5.15;2.35;;;33.30;40.40;;;;;;6186861;23;20313;-74
2022/07/16 13:15:49;;;;;;;7.38;2.60;;;33.30;40.30;;;;;;6187139;23;20446;-74
2022/07/16 13:18:14;;;;;;;5.35;2.58;;;33.40;40.30;;;;;;6186883;23;20456;-74
2022/07/16 13:20:40;;;;;;;3.70;2.40;;;33.40;40.30;;;;;;6186972;23;20005;-74
2022/07/16 13:23:06;;;;;;;10.63;3.10;;;33.40;40.30;;;;;;6185057;23;20008;-75
2022/07/16 13:25:31;;;;;;;8.40;2.58;;;33.40;40.30;;;;;;6183188;23;20332;-74
2022/07/16 13:27:57;;;;;;;5.47;2.33;;;33.40;40.30;;;;;;6183431;23;20017;-75
2022/07/16 13:30:23;;;;;;;7.80;2.60;;;33.50;40.30;;;;;;6185424;23;19997;-74
2022/07/16 13:32:50;;;;;;;7.68;2.30;;;33.50;40.30;;;;;;6186434;23;20005;-75
2022/07/16 13:35:17;;;;;;;7.30;2.78;;;33.50;40.00;;;;;;6186778;23;19997;-74
2022/07/16 13:37:42;;;;;;;6.28;2.45;;;33.50;39.90;;;;;;6186369;23;20028;-74
2022/07/16 13:40:09;;;;;;;4.15;2.33;;;33.50;40.10;;;;;;6186344;23;20001;-75
2022/07/16 13:42:34;;;;;;;6.35;2.60;;;33.50;40.20;;;;;;6186638;23;20523;-74
2022/07/16 13:45:00;;;;;;;4.55;2.38;;;33.50;40.30;;;;;;6186356;23;20040;-74
2022/07/16 13:47:26;;;;;;;10.05;2.53;;;33.50;40.50;;;;;;6186455;23;20016;-73
2022/07/16 13:49:51;;;;;;;3.72;2.38;;;33.50;40.60;;;;;;6186545;23;20393;-74
2022/07/16 13:52:17;;;;;;;5.53;2.45;;;33.50;40.70;;;;;;6186412;23;20032;-75
2022/07/16 13:54:43;;;;;;;4.15;2.53;;;33.50;40.50;;;;;;6186325;23;20044;-74
2022/07/16 13:59:53;;;;;;;5.80;2.47;;;33.60;40.50;;;;;;6186367;23;20019;-74
2022/07/16 14:02:19;;;;;;;8.40;2.53;;;33.60;40.50;;;;;;6186204;23;20080;-74
2022/07/16 14:04:44;;;;;;;9.75;2.50;;;33.70;40.40;;;;;;6186315;23;20012;-74
2022/07/16 14:07:10;;;;;;;6.03;2.60;;;33.70;40.20;;;;;;6185966;23;20037;-74
2022/07/16 14:09:37;;;;;;;4.63;2.20;;;33.70;40.30;;;;;;6185431;23;20001;-74
2022/07/16 14:12:03;;;;;;;4.78;2.80;;;33.70;40.30;;;;;;6185970;23;20355;-74
2022/07/16 14:14:29;;;;;;;4.95;2.45;;;33.70;40.20;;;;;;6186204;23;20335;-74